Cathma — PJTL — position and weather

sailwx.info

Track history (hours):
 
Tides and Currents Weather Stations Pressure Air Temp Water Temp Dewpoint Dewpoint Depression Visibility Wind Speed Wind Dir Waves Ship Positions

Cathma

Last reported at 2017-Sep-22 01:59 UTC. Time now 2017-Sep-25 02:53 UTC.
Position N 61°08' E 021°28'.

Length 112 m; draft 6.5 m.

Type: Cargo ship. MMSI: 306832000.

Date/timePositionNaut miles runAvg speedWind from/ knotsBaromVisibWave heightAir tempDewpointWater temp
2017-Sep-22 01:59N 61°08' E 021°28'0 0.0
2017-Sep-22 01:29N 61°08' E 021°28'0 0.0
2017-Sep-22 00:59N 61°08' E 021°28'0 0.0
2017-Sep-22 00:28N 61°08' E 021°28'0 0.0
2017-Sep-21 23:58N 61°08' E 021°28'0 0.0
2017-Sep-21 23:28N 61°08' E 021°28'0 0.0
2017-Sep-21 22:58N 61°08' E 021°28'0 0.0
2017-Sep-21 22:28N 61°08' E 021°28'0 0.0
2017-Sep-21 22:00N 61°08' E 021°28'0 0.0
2017-Sep-21 21:30N 61°08' E 021°28'0 0.0
2017-Sep-21 20:54N 61°08' E 021°28'0 0.0
2017-Sep-21 20:27N 61°08' E 021°28'0 0.0
2017-Sep-21 19:59N 61°08' E 021°28'0 0.0
2017-Sep-21 19:26N 61°08' E 021°28'0 0.0
2017-Sep-21 18:59N 61°08' E 021°28'0 0.0
2017-Sep-21 18:29N 61°08' E 021°28'0 0.0
2017-Sep-21 17:59N 61°08' E 021°28'0 0.0
2017-Sep-21 17:28N 61°08' E 021°28'0 0.0
2017-Sep-21 16:55N 61°08' E 021°28'0 0.0
2017-Sep-21 16:28N 61°08' E 021°28'0 0.0
2017-Sep-21 15:58N 61°08' E 021°28'0 0.0
2017-Sep-21 15:31N 61°08' E 021°28'0 0.0
2017-Sep-21 15:00N 61°08' E 021°28'0 0.0
2017-Sep-21 14:21N 61°08' E 021°28'0 0.0
2017-Sep-21 14:00N 61°08' E 021°28'0 0.0
2017-Sep-21 13:30N 61°08' E 021°28'0 0.0
2017-Sep-21 12:59N 61°08' E 021°28'0 0.0
2017-Sep-21 12:29N 61°08' E 021°28'0 0.0
2017-Sep-21 11:59N 61°08' E 021°28'0 0.0
2017-Sep-21 11:29N 61°08' E 021°28'0 0.0
2017-Sep-21 10:46N 61°08' E 021°28'0 0.0
2017-Sep-21 10:28N 61°08' E 021°28'0 0.0
2017-Sep-21 09:58N 61°08' E 021°28'0 0.0
2017-Sep-21 09:22N 61°08' E 021°28'0 0.0
2017-Sep-21 08:58N 61°08' E 021°28'0 0.0
2017-Sep-21 08:28N 61°08' E 021°28'0 0.0
2017-Sep-21 07:57N 61°08' E 021°28'0 0.0
2017-Sep-21 07:30N 61°08' E 021°28'0 0.0
2017-Sep-21 07:00N 61°08' E 021°28'0 0.0
2017-Sep-21 06:30N 61°08' E 021°28'0 0.0
2017-Sep-21 05:56N 61°08' E 021°28'0 0.0
2017-Sep-21 05:29N 61°08' E 021°28'0 0.0
2017-Sep-21 04:59N 61°08' E 021°28'0 0.0
2017-Sep-21 04:29N 61°08' E 021°28'1 1.2
2017-Sep-21 04:01N 61°08' E 021°26'3 6.9
2017-Sep-21 03:30N 61°10' E 021°21'5 9.9
2017-Sep-21 03:01N 61°10' E 021°11'4 9.0
2017-Sep-21 02:31N 61°09' E 021°02'78 9.6
2017-Sep-20 18:19N 60°17' E 019°02'310.1
2017-Sep-20 18:00N 60°14' E 019°04'5 9.8
2017-Sep-20 17:30N 60°10' E 019°09'510.2
2017-Sep-20 17:00N 60°06' E 019°16'510.1
2017-Sep-20 16:29N 60°02' E 019°22'510.1
2017-Sep-20 16:00N 59°58' E 019°28'510.1
2017-Sep-20 15:29N 59°54' E 019°35'5 9.9
2017-Sep-20 15:00N 59°50' E 019°41'41 9.7
2017-Sep-20 10:47N 59°37' E 020°58'310.6
2017-Sep-20 10:30N 59°37' E 021°04'510.6
2017-Sep-20 10:00N 59°35' E 021°14'510.3
2017-Sep-20 09:30N 59°34' E 021°24'510.6
2017-Sep-20 09:00N 59°35' E 021°34'510.7
2017-Sep-20 08:30N 59°35' E 021°45'710.7
2017-Sep-20 07:51N 59°36' E 021°59'2810.7
2017-Sep-20 05:17N 59°37' E 022°53'411.0
2017-Sep-20 04:57N 59°38' E 023°00'511.2
2017-Sep-20 04:30N 59°38' E 023°10'511.1
2017-Sep-20 04:00N 59°39' E 023°21'611.0
2017-Sep-20 03:30N 59°41' E 023°31'510.9
2017-Sep-20 03:00N 59°42' E 023°42'510.9
2017-Sep-20 02:30N 59°43' E 023°52'611.0
2017-Sep-20 02:00N 59°45' E 024°03'811.2
2017-Sep-20 01:17N 59°47' E 024°18'311.0
2017-Sep-20 01:00N 59°48' E 024°24'511.0
2017-Sep-20 00:31N 59°49' E 024°35'510.8
2017-Sep-20 00:01N 59°50' E 024°45'510.9
2017-Sep-19 23:30N 59°51' E 024°56'3911.0
2017-Sep-19 19:58N 59°59' E 026°12'510.3
2017-Sep-19 19:30N 59°60' E 026°21'510.8
2017-Sep-19 19:01N 60°01' E 026°32'510.6
2017-Sep-19 18:30N 60°01' E 026°42'510.8
2017-Sep-19 18:00N 60°00' E 026°53'510.7
2017-Sep-19 17:30N 59°60' E 027°04'510.9
2017-Sep-19 17:01N 60°02' E 027°13'510.9
2017-Sep-19 16:31N 60°05' E 027°22'510.8
2017-Sep-19 16:00N 60°08' E 027°32'510.8
2017-Sep-19 15:30N 60°11' E 027°41'5 9.9
2017-Sep-19 15:00N 60°12' E 027°51'510.8
2017-Sep-19 14:30N 60°10' E 028°01'510.5
2017-Sep-19 14:00N 60°09' E 028°12'510.2
2017-Sep-19 13:30N 60°07' E 028°21'510.4
2017-Sep-19 13:00N 60°04' E 028°29'510.3
2017-Sep-19 12:30N 60°03' E 028°40'510.2
2017-Sep-19 12:00N 60°03' E 028°50'2810.2
2017-Sep-19 09:16N 59°59' E 029°45'310.6
2017-Sep-19 09:00N 59°57' E 029°50'510.7
2017-Sep-19 08:30N 59°55' E 030°00'5 9.3
2017-Sep-19 08:00N 59°54' E 030°09'2 2.9
2017-Sep-19 07:28N 59°53' E 030°11'0 0.0
2017-Sep-19 06:58N 59°53' E 030°11'0 0.0
2017-Sep-19 06:28N 59°53' E 030°11'0 0.0
2017-Sep-19 05:55N 59°53' E 030°11'0 0.0
2017-Sep-19 05:28N 59°53' E 030°11'0 0.0
2017-Sep-19 05:00N 59°53' E 030°11'0 0.0
2017-Sep-19 04:30N 59°53' E 030°11'0 0.0
2017-Sep-19 04:00N 59°53' E 030°11'0 0.0
2017-Sep-19 03:30N 59°53' E 030°11'0 0.0
2017-Sep-19 02:59N 59°53' E 030°11'0 0.0
2017-Sep-19 02:29N 59°53' E 030°11'0 0.0
2017-Sep-19 01:59N 59°53' E 030°11'0 0.0
2017-Sep-19 01:29N 59°53' E 030°11'0 0.0
2017-Sep-19 00:59N 59°53' E 030°11'0 0.0
2017-Sep-19 00:28N 59°53' E 030°11'0 0.0
2017-Sep-18 23:58N 59°53' E 030°11'0 0.0
2017-Sep-18 23:28N 59°53' E 030°11'0 0.0
2017-Sep-18 22:58N 59°53' E 030°11'0 0.0
2017-Sep-18 22:28N 59°53' E 030°11'0 0.0
2017-Sep-18 22:00N 59°53' E 030°11'0 0.0
2017-Sep-18 21:30N 59°53' E 030°11'0 0.0
2017-Sep-18 21:00N 59°53' E 030°11'0 0.0
2017-Sep-18 20:30N 59°53' E 030°11'0 0.0
2017-Sep-18 19:59N 59°53' E 030°11'0 0.0
2017-Sep-18 19:30N 59°53' E 030°11'0 0.0
2017-Sep-18 18:59N 59°53' E 030°11'0 0.0
2017-Sep-18 18:23N 59°53' E 030°11'0 0.0
2017-Sep-18 17:59N 59°53' E 030°11'0 0.0
2017-Sep-18 17:28N 59°53' E 030°11'0 0.0
2017-Sep-18 16:58N 59°53' E 030°11'0 0.0
2017-Sep-18 16:28N 59°53' E 030°11'0 0.0
2017-Sep-18 15:58N 59°53' E 030°11'0 0.0
2017-Sep-18 15:27N 59°53' E 030°11'0 0.0
2017-Sep-18 15:00N 59°53' E 030°11'0 0.0
2017-Sep-18 14:30N 59°53' E 030°11'0 0.0
2017-Sep-18 14:00N 59°53' E 030°11'0 0.0
2017-Sep-18 13:30N 59°53' E 030°11'0 0.0
2017-Sep-18 12:59N 59°53' E 030°11'0 0.0
2017-Sep-18 12:29N 59°53' E 030°11'0 0.0
2017-Sep-18 11:59N 59°53' E 030°11'0 0.0
2017-Sep-18 11:29N 59°53' E 030°11'0 0.0
2017-Sep-18 10:59N 59°53' E 030°11'0 0.0
2017-Sep-18 10:28N 59°53' E 030°11'0 0.0
2017-Sep-18 09:58N 59°53' E 030°11'0 0.0
2017-Sep-18 09:28N 59°53' E 030°11'0 0.0
2017-Sep-18 08:55N 59°53' E 030°11'0 0.0
2017-Sep-18 08:30N 59°53' E 030°11'0 0.0
2017-Sep-18 08:00N 59°53' E 030°11'0 0.0
2017-Sep-18 07:30N 59°53' E 030°11'0 0.0
2017-Sep-18 07:00N 59°53' E 030°11'0 0.0
2017-Sep-18 06:21N 59°53' E 030°11'0 0.0
2017-Sep-18 06:00N 59°53' E 030°11'0 0.0
2017-Sep-18 05:29N 59°53' E 030°11'0 0.0
2017-Sep-18 04:59N 59°53' E 030°11'0 0.0
2017-Sep-18 04:29N 59°53' E 030°11'0 0.0
2017-Sep-18 03:59N 59°53' E 030°11'0 0.0
2017-Sep-18 03:25N 59°53' E 030°11'0 0.0
2017-Sep-18 02:55N 59°53' E 030°11'0 0.0
2017-Sep-18 02:25N 59°53' E 030°11'0 0.0
2017-Sep-18 01:58N 59°53' E 030°11'0 0.0
2017-Sep-18 01:30N 59°53' E 030°11'0 0.0
2017-Sep-18 01:00N 59°53' E 030°11'0 0.0
2017-Sep-18 00:30N 59°53' E 030°11'0 0.0
2017-Sep-18 00:00N 59°53' E 030°11'0 0.0
2017-Sep-17 23:30N 59°53' E 030°11'0 0.0
2017-Sep-17 23:00N 59°53' E 030°11'0 0.0
2017-Sep-17 22:29N 59°53' E 030°11'0 0.0
2017-Sep-17 21:59N 59°53' E 030°11'0 0.0
2017-Sep-17 21:20N 59°53' E 030°11'0 0.0
2017-Sep-17 20:58N 59°53' E 030°11'0 0.0
2017-Sep-17 20:28N 59°53' E 030°11'0 0.0
2017-Sep-17 19:58N 59°53' E 030°11'0 0.0
2017-Sep-17 19:28N 59°53' E 030°11'0 0.0
2017-Sep-17 18:58N 59°53' E 030°11'0 0.0
2017-Sep-17 18:30N 59°53' E 030°11'0 0.0
2017-Sep-17 17:57N 59°53' E 030°11'0 0.0
2017-Sep-17 17:27N 59°53' E 030°11'0 0.0
2017-Sep-17 16:57N 59°53' E 030°11'0 0.0
2017-Sep-17 16:21N 59°53' E 030°11'0 0.0
2017-Sep-17 16:01N 59°53' E 030°11'0 0.8
2017-Sep-17 15:30N 59°53' E 030°11'2 4.4
2017-Sep-17 15:00N 59°54' E 030°07'4 8.0
2017-Sep-17 14:31N 59°55' E 029°59'510.3
2017-Sep-17 14:00N 59°57' E 029°50'510.3
2017-Sep-17 13:29N 59°60' E 029°40'15 5.0
2017-Sep-17 10:23N 60°02' E 029°09'511.1
2017-Sep-17 09:57N 60°02' E 028°60'612.9
2017-Sep-17 09:29N 60°02' E 028°47'612.6
2017-Sep-17 09:00N 60°02' E 028°35'612.6
2017-Sep-17 08:30N 60°04' E 028°23'612.6
2017-Sep-17 08:00N 60°07' E 028°13'713.3
2017-Sep-17 07:31N 60°09' E 028°00'612.7
2017-Sep-17 07:00N 60°11' E 027°48'612.6
2017-Sep-17 06:31N 60°08' E 027°37'712.9
2017-Sep-17 06:00N 60°04' E 027°26'612.8
2017-Sep-17 05:30N 60°01' E 027°15'713.1
2017-Sep-17 05:00N 59°58' E 027°03'713.1
2017-Sep-17 04:30N 59°59' E 026°50'612.8
2017-Sep-17 04:01N 59°59' E 026°38'713.9
2017-Sep-17 03:30N 59°57' E 026°24'612.1
2017-Sep-17 03:00N 59°55' E 026°13'3713.0
2017-Sep-17 00:08N 59°47' E 024°60'213.0
2017-Sep-17 00:00N 59°47' E 024°57'612.9
2017-Sep-16 23:30N 59°45' E 024°44'612.9
2017-Sep-16 23:00N 59°44' E 024°32'612.9
2017-Sep-16 22:30N 59°43' E 024°19'1412.6
2017-Sep-16 21:22N 59°39' E 023°52'712.9
2017-Sep-16 20:51N 59°37' E 023°39'413.0
2017-Sep-16 20:30N 59°37' E 023°30'612.8
2017-Sep-16 20:00N 59°35' E 023°18'612.6
2017-Sep-16 19:30N 59°34' E 023°05'4512.7
2017-Sep-16 15:58N 59°34' E 021°37'612.9
2017-Sep-16 15:30N 59°33' E 021°26'612.6
2017-Sep-16 15:00N 59°34' E 021°13'612.8
2017-Sep-16 14:30N 59°36' E 021°01'  
Track history (hours):
 
Tides and Currents Weather Stations Pressure Air Temp Water Temp Dewpoint Dewpoint Depression Visibility Wind Speed Wind Dir Waves Ship Positions

Cathma

Last reported at 2017-Sep-22 01:59 UTC. Time now 2017-Sep-25 02:53 UTC.
Position N 61°08' E 021°28'.

Length 112 m; draft 6.5 m.

Type: Cargo ship. MMSI: 306832000.

Date/timePositionNaut miles runAvg speedWind from/ knotsBaromVisibWave heightAir tempDewpointWater temp
2017-Sep-22 01:59N 61°08' E 021°28'0 0.0
2017-Sep-22 01:29N 61°08' E 021°28'0 0.0
2017-Sep-22 00:59N 61°08' E 021°28'0 0.0
2017-Sep-22 00:28N 61°08' E 021°28'0 0.0
2017-Sep-21 23:58N 61°08' E 021°28'0 0.0
2017-Sep-21 23:28N 61°08' E 021°28'0 0.0
2017-Sep-21 22:58N 61°08' E 021°28'0 0.0
2017-Sep-21 22:28N 61°08' E 021°28'0 0.0
2017-Sep-21 22:00N 61°08' E 021°28'0 0.0
2017-Sep-21 21:30N 61°08' E 021°28'0 0.0
2017-Sep-21 20:54N 61°08' E 021°28'0 0.0
2017-Sep-21 20:27N 61°08' E 021°28'0 0.0
2017-Sep-21 19:59N 61°08' E 021°28'0 0.0
2017-Sep-21 19:26N 61°08' E 021°28'0 0.0
2017-Sep-21 18:59N 61°08' E 021°28'0 0.0
2017-Sep-21 18:29N 61°08' E 021°28'0 0.0
2017-Sep-21 17:59N 61°08' E 021°28'0 0.0
2017-Sep-21 17:28N 61°08' E 021°28'0 0.0
2017-Sep-21 16:55N 61°08' E 021°28'0 0.0
2017-Sep-21 16:28N 61°08' E 021°28'0 0.0
2017-Sep-21 15:58N 61°08' E 021°28'0 0.0
2017-Sep-21 15:31N 61°08' E 021°28'0 0.0
2017-Sep-21 15:00N 61°08' E 021°28'0 0.0
2017-Sep-21 14:21N 61°08' E 021°28'0 0.0
2017-Sep-21 14:00N 61°08' E 021°28'0 0.0
2017-Sep-21 13:30N 61°08' E 021°28'0 0.0
2017-Sep-21 12:59N 61°08' E 021°28'0 0.0
2017-Sep-21 12:29N 61°08' E 021°28'0 0.0
2017-Sep-21 11:59N 61°08' E 021°28'0 0.0
2017-Sep-21 11:29N 61°08' E 021°28'0 0.0
2017-Sep-21 10:46N 61°08' E 021°28'0 0.0
2017-Sep-21 10:28N 61°08' E 021°28'0 0.0
2017-Sep-21 09:58N 61°08' E 021°28'0 0.0
2017-Sep-21 09:22N 61°08' E 021°28'0 0.0
2017-Sep-21 08:58N 61°08' E 021°28'0 0.0
2017-Sep-21 08:28N 61°08' E 021°28'0 0.0
2017-Sep-21 07:57N 61°08' E 021°28'0 0.0
2017-Sep-21 07:30N 61°08' E 021°28'0 0.0
2017-Sep-21 07:00N 61°08' E 021°28'0 0.0
2017-Sep-21 06:30N 61°08' E 021°28'0 0.0
2017-Sep-21 05:56N 61°08' E 021°28'0 0.0
2017-Sep-21 05:29N 61°08' E 021°28'0 0.0
2017-Sep-21 04:59N 61°08' E 021°28'0 0.0
2017-Sep-21 04:29N 61°08' E 021°28'1 1.2
2017-Sep-21 04:01N 61°08' E 021°26'3 6.9
2017-Sep-21 03:30N 61°10' E 021°21'5 9.9
2017-Sep-21 03:01N 61°10' E 021°11'4 9.0
2017-Sep-21 02:31N 61°09' E 021°02'78 9.6
2017-Sep-20 18:19N 60°17' E 019°02'310.1
2017-Sep-20 18:00N 60°14' E 019°04'5 9.8
2017-Sep-20 17:30N 60°10' E 019°09'510.2
2017-Sep-20 17:00N 60°06' E 019°16'510.1
2017-Sep-20 16:29N 60°02' E 019°22'510.1
2017-Sep-20 16:00N 59°58' E 019°28'510.1
2017-Sep-20 15:29N 59°54' E 019°35'5 9.9
2017-Sep-20 15:00N 59°50' E 019°41'41 9.7
2017-Sep-20 10:47N 59°37' E 020°58'310.6
2017-Sep-20 10:30N 59°37' E 021°04'510.6
2017-Sep-20 10:00N 59°35' E 021°14'510.3
2017-Sep-20 09:30N 59°34' E 021°24'510.6
2017-Sep-20 09:00N 59°35' E 021°34'510.7
2017-Sep-20 08:30N 59°35' E 021°45'710.7
2017-Sep-20 07:51N 59°36' E 021°59'2810.7
2017-Sep-20 05:17N 59°37' E 022°53'411.0
2017-Sep-20 04:57N 59°38' E 023°00'511.2
2017-Sep-20 04:30N 59°38' E 023°10'511.1
2017-Sep-20 04:00N 59°39' E 023°21'611.0
2017-Sep-20 03:30N 59°41' E 023°31'510.9
2017-Sep-20 03:00N 59°42' E 023°42'510.9
2017-Sep-20 02:30N 59°43' E 023°52'611.0
2017-Sep-20 02:00N 59°45' E 024°03'811.2
2017-Sep-20 01:17N 59°47' E 024°18'311.0
2017-Sep-20 01:00N 59°48' E 024°24'511.0
2017-Sep-20 00:31N 59°49' E 024°35'510.8
2017-Sep-20 00:01N 59°50' E 024°45'510.9
2017-Sep-19 23:30N 59°51' E 024°56'3911.0
2017-Sep-19 19:58N 59°59' E 026°12'510.3
2017-Sep-19 19:30N 59°60' E 026°21'510.8
2017-Sep-19 19:01N 60°01' E 026°32'510.6
2017-Sep-19 18:30N 60°01' E 026°42'510.8
2017-Sep-19 18:00N 60°00' E 026°53'510.7
2017-Sep-19 17:30N 59°60' E 027°04'510.9
2017-Sep-19 17:01N 60°02' E 027°13'510.9
2017-Sep-19 16:31N 60°05' E 027°22'510.8
2017-Sep-19 16:00N 60°08' E 027°32'510.8
2017-Sep-19 15:30N 60°11' E 027°41'5 9.9
2017-Sep-19 15:00N 60°12' E 027°51'510.8
2017-Sep-19 14:30N 60°10' E 028°01'510.5
2017-Sep-19 14:00N 60°09' E 028°12'510.2
2017-Sep-19 13:30N 60°07' E 028°21'510.4
2017-Sep-19 13:00N 60°04' E 028°29'510.3
2017-Sep-19 12:30N 60°03' E 028°40'510.2
2017-Sep-19 12:00N 60°03' E 028°50'2810.2
2017-Sep-19 09:16N 59°59' E 029°45'310.6
2017-Sep-19 09:00N 59°57' E 029°50'510.7
2017-Sep-19 08:30N 59°55' E 030°00'5 9.3
2017-Sep-19 08:00N 59°54' E 030°09'2 2.9
2017-Sep-19 07:28N 59°53' E 030°11'0 0.0
2017-Sep-19 06:58N 59°53' E 030°11'0 0.0
2017-Sep-19 06:28N 59°53' E 030°11'0 0.0
2017-Sep-19 05:55N 59°53' E 030°11'0 0.0
2017-Sep-19 05:28N 59°53' E 030°11'0 0.0
2017-Sep-19 05:00N 59°53' E 030°11'0 0.0
2017-Sep-19 04:30N 59°53' E 030°11'0 0.0
2017-Sep-19 04:00N 59°53' E 030°11'0 0.0
2017-Sep-19 03:30N 59°53' E 030°11'0 0.0
2017-Sep-19 02:59N 59°53' E 030°11'0 0.0
2017-Sep-19 02:29N 59°53' E 030°11'0 0.0
2017-Sep-19 01:59N 59°53' E 030°11'0 0.0
2017-Sep-19 01:29N 59°53' E 030°11'0 0.0
2017-Sep-19 00:59N 59°53' E 030°11'0 0.0
2017-Sep-19 00:28N 59°53' E 030°11'0 0.0
2017-Sep-18 23:58N 59°53' E 030°11'0 0.0
2017-Sep-18 23:28N 59°53' E 030°11'0 0.0
2017-Sep-18 22:58N 59°53' E 030°11'0 0.0
2017-Sep-18 22:28N 59°53' E 030°11'0 0.0
2017-Sep-18 22:00N 59°53' E 030°11'0 0.0
2017-Sep-18 21:30N 59°53' E 030°11'0 0.0
2017-Sep-18 21:00N 59°53' E 030°11'0 0.0
2017-Sep-18 20:30N 59°53' E 030°11'0 0.0
2017-Sep-18 19:59N 59°53' E 030°11'0 0.0
2017-Sep-18 19:30N 59°53' E 030°11'0 0.0
2017-Sep-18 18:59N 59°53' E 030°11'0 0.0
2017-Sep-18 18:23N 59°53' E 030°11'0 0.0
2017-Sep-18 17:59N 59°53' E 030°11'0 0.0
2017-Sep-18 17:28N 59°53' E 030°11'0 0.0
2017-Sep-18 16:58N 59°53' E 030°11'0 0.0
2017-Sep-18 16:28N 59°53' E 030°11'0 0.0
2017-Sep-18 15:58N 59°53' E 030°11'0 0.0
2017-Sep-18 15:27N 59°53' E 030°11'0 0.0
2017-Sep-18 15:00N 59°53' E 030°11'0 0.0
2017-Sep-18 14:30N 59°53' E 030°11'0 0.0
2017-Sep-18 14:00N 59°53' E 030°11'0 0.0
2017-Sep-18 13:30N 59°53' E 030°11'0 0.0
2017-Sep-18 12:59N 59°53' E 030°11'0 0.0
2017-Sep-18 12:29N 59°53' E 030°11'0 0.0
2017-Sep-18 11:59N 59°53' E 030°11'0 0.0
2017-Sep-18 11:29N 59°53' E 030°11'0 0.0
2017-Sep-18 10:59N 59°53' E 030°11'0 0.0
2017-Sep-18 10:28N 59°53' E 030°11'0 0.0
2017-Sep-18 09:58N 59°53' E 030°11'0 0.0
2017-Sep-18 09:28N 59°53' E 030°11'0 0.0
2017-Sep-18 08:55N 59°53' E 030°11'0 0.0
2017-Sep-18 08:30N 59°53' E 030°11'0 0.0
2017-Sep-18 08:00N 59°53' E 030°11'0 0.0
2017-Sep-18 07:30N 59°53' E 030°11'0 0.0
2017-Sep-18 07:00N 59°53' E 030°11'0 0.0
2017-Sep-18 06:21N 59°53' E 030°11'0 0.0
2017-Sep-18 06:00N 59°53' E 030°11'0 0.0
2017-Sep-18 05:29N 59°53' E 030°11'0 0.0
2017-Sep-18 04:59N 59°53' E 030°11'0 0.0
2017-Sep-18 04:29N 59°53' E 030°11'0 0.0
2017-Sep-18 03:59N 59°53' E 030°11'0 0.0
2017-Sep-18 03:25N 59°53' E 030°11'0 0.0
2017-Sep-18 02:55N 59°53' E 030°11'0 0.0
2017-Sep-18 02:25N 59°53' E 030°11'0 0.0
2017-Sep-18 01:58N 59°53' E 030°11'0 0.0
2017-Sep-18 01:30N 59°53' E 030°11'0 0.0
2017-Sep-18 01:00N 59°53' E 030°11'0 0.0
2017-Sep-18 00:30N 59°53' E 030°11'0 0.0
2017-Sep-18 00:00N 59°53' E 030°11'0 0.0
2017-Sep-17 23:30N 59°53' E 030°11'0 0.0
2017-Sep-17 23:00N 59°53' E 030°11'0 0.0
2017-Sep-17 22:29N 59°53' E 030°11'0 0.0
2017-Sep-17 21:59N 59°53' E 030°11'0 0.0
2017-Sep-17 21:20N 59°53' E 030°11'0 0.0
2017-Sep-17 20:58N 59°53' E 030°11'0 0.0
2017-Sep-17 20:28N 59°53' E 030°11'0 0.0
2017-Sep-17 19:58N 59°53' E 030°11'0 0.0
2017-Sep-17 19:28N 59°53' E 030°11'0 0.0
2017-Sep-17 18:58N 59°53' E 030°11'0 0.0
2017-Sep-17 18:30N 59°53' E 030°11'0 0.0
2017-Sep-17 17:57N 59°53' E 030°11'0 0.0
2017-Sep-17 17:27N 59°53' E 030°11'0 0.0
2017-Sep-17 16:57N 59°53' E 030°11'0 0.0
2017-Sep-17 16:21N 59°53' E 030°11'0 0.0
2017-Sep-17 16:01N 59°53' E 030°11'0 0.8
2017-Sep-17 15:30N 59°53' E 030°11'2 4.4
2017-Sep-17 15:00N 59°54' E 030°07'4 8.0
2017-Sep-17 14:31N 59°55' E 029°59'510.3
2017-Sep-17 14:00N 59°57' E 029°50'510.3
2017-Sep-17 13:29N 59°60' E 029°40'15 5.0
2017-Sep-17 10:23N 60°02' E 029°09'511.1
2017-Sep-17 09:57N 60°02' E 028°60'612.9
2017-Sep-17 09:29N 60°02' E 028°47'612.6
2017-Sep-17 09:00N 60°02' E 028°35'612.6
2017-Sep-17 08:30N 60°04' E 028°23'612.6
2017-Sep-17 08:00N 60°07' E 028°13'713.3
2017-Sep-17 07:31N 60°09' E 028°00'612.7
2017-Sep-17 07:00N 60°11' E 027°48'612.6
2017-Sep-17 06:31N 60°08' E 027°37'712.9
2017-Sep-17 06:00N 60°04' E 027°26'612.8
2017-Sep-17 05:30N 60°01' E 027°15'713.1
2017-Sep-17 05:00N 59°58' E 027°03'713.1
2017-Sep-17 04:30N 59°59' E 026°50'612.8
2017-Sep-17 04:01N 59°59' E 026°38'713.9
2017-Sep-17 03:30N 59°57' E 026°24'612.1
2017-Sep-17 03:00N 59°55' E 026°13'3713.0
2017-Sep-17 00:08N 59°47' E 024°60'213.0
2017-Sep-17 00:00N 59°47' E 024°57'612.9
2017-Sep-16 23:30N 59°45' E 024°44'612.9
2017-Sep-16 23:00N 59°44' E 024°32'612.9
2017-Sep-16 22:30N 59°43' E 024°19'1412.6
2017-Sep-16 21:22N 59°39' E 023°52'712.9
2017-Sep-16 20:51N 59°37' E 023°39'413.0
2017-Sep-16 20:30N 59°37' E 023°30'612.8
2017-Sep-16 20:00N 59°35' E 023°18'612.6
2017-Sep-16 19:30N 59°34' E 023°05'4512.7
2017-Sep-16 15:58N 59°34' E 021°37'612.9
2017-Sep-16 15:30N 59°33' E 021°26'612.6
2017-Sep-16 15:00N 59°34' E 021°13'612.8
2017-Sep-16 14:30N 59°36' E 021°01'  

Dump ship's entire track history